sensor_id;sensor_type;location;lat;lon;timestamp;P1;durP1;ratioP1;P2;durP2;ratioP2
9720;SDS011;4899;42.644;23.366;2023-07-31T00:00:23;3.40;;;3.20;;
9720;SDS011;4899;42.644;23.366;2023-07-31T00:02:48;3.40;;;3.20;;
9720;SDS011;4899;42.644;23.366;2023-07-31T00:05:13;3.93;;;3.63;;
9720;SDS011;4899;42.644;23.366;2023-07-31T00:07:39;3.30;;;3.10;;
9720;SDS011;4899;42.644;23.366;2023-07-31T00:10:04;3.70;;;3.40;;
9720;SDS011;4899;42.644;23.366;2023-07-31T00:12:29;3.87;;;3.60;;
9720;SDS011;4899;42.644;23.366;2023-07-31T00:14:54;4.07;;;3.77;;
9720;SDS011;4899;42.644;23.366;2023-07-31T00:17:20;3.67;;;3.40;;
9720;SDS011;4899;42.644;23.366;2023-07-31T00:19:45;3.30;;;3.10;;
9720;SDS011;4899;42.644;23.366;2023-07-31T00:22:15;3.97;;;3.67;;
9720;SDS011;4899;42.644;23.366;2023-07-31T00:24:40;4.00;;;3.70;;
9720;SDS011;4899;42.644;23.366;2023-07-31T00:27:06;4.20;;;3.90;;
9720;SDS011;4899;42.644;23.366;2023-07-31T00:29:31;3.50;;;3.20;;
9720;SDS011;4899;42.644;23.366;2023-07-31T00:31:56;3.73;;;3.33;;
9720;SDS011;4899;42.644;23.366;2023-07-31T00:34:22;3.40;;;3.20;;
9720;SDS011;4899;42.644;23.366;2023-07-31T00:36:47;4.83;;;4.07;;
9720;SDS011;4899;42.644;23.366;2023-07-31T00:39:12;4.30;;;4.00;;
9720;SDS011;4899;42.644;23.366;2023-07-31T00:41:37;4.07;;;3.77;;
9720;SDS011;4899;42.644;23.366;2023-07-31T00:44:03;4.73;;;4.33;;
9720;SDS011;4899;42.644;23.366;2023-07-31T00:46:28;3.90;;;3.60;;
9720;SDS011;4899;42.644;23.366;2023-07-31T00:48:53;5.33;;;4.80;;
9720;SDS011;4899;42.644;23.366;2023-07-31T00:51:19;4.70;;;4.30;;
9720;SDS011;4899;42.644;23.366;2023-07-31T00:53:44;4.70;;;4.37;;
9720;SDS011;4899;42.644;23.366;2023-07-31T00:56:10;5.43;;;5.13;;
9720;SDS011;4899;42.644;23.366;2023-07-31T00:58:36;5.73;;;5.30;;
9720;SDS011;4899;42.644;23.366;2023-07-31T01:01:01;6.53;;;6.03;;
9720;SDS011;4899;42.644;23.366;2023-07-31T01:03:26;6.47;;;5.87;;
9720;SDS011;4899;42.644;23.366;2023-07-31T01:05:55;7.20;;;6.70;;
9720;SDS011;4899;42.644;23.366;2023-07-31T01:08:28;6.83;;;6.33;;
9720;SDS011;4899;42.644;23.366;2023-07-31T01:11:02;7.37;;;6.80;;
9720;SDS011;4899;42.644;23.366;2023-07-31T01:13:30;7.77;;;7.17;;
9720;SDS011;4899;42.644;23.366;2023-07-31T01:15:56;7.77;;;7.17;;
9720;SDS011;4899;42.644;23.366;2023-07-31T01:18:21;8.53;;;7.93;;
9720;SDS011;4899;42.644;23.366;2023-07-31T01:20:47;9.23;;;8.50;;
9720;SDS011;4899;42.644;23.366;2023-07-31T01:23:32;10.80;;;10.00;;
9720;SDS011;4899;42.644;23.366;2023-07-31T01:28:25;11.53;;;10.73;;
9720;SDS011;4899;42.644;23.366;2023-07-31T01:30:52;13.20;;;12.10;;
9720;SDS011;4899;42.644;23.366;2023-07-31T01:33:20;14.70;;;13.50;;
9720;SDS011;4899;42.644;23.366;2023-07-31T01:35:45;14.77;;;13.67;;
9720;SDS011;4899;42.644;23.366;2023-07-31T01:38:11;16.50;;;15.20;;
9720;SDS011;4899;42.644;23.366;2023-07-31T01:40:37;17.40;;;16.10;;
9720;SDS011;4899;42.644;23.366;2023-07-31T01:43:02;19.63;;;17.93;;
9720;SDS011;4899;42.644;23.366;2023-07-31T01:45:27;20.20;;;18.47;;
9720;SDS011;4899;42.644;23.366;2023-07-31T01:47:52;21.27;;;19.50;;
9720;SDS011;4899;42.644;23.366;2023-07-31T01:50:18;21.47;;;19.70;;
9720;SDS011;4899;42.644;23.366;2023-07-31T01:52:43;22.60;;;20.57;;
9720;SDS011;4899;42.644;23.366;2023-07-31T01:55:08;22.70;;;20.80;;
9720;SDS011;4899;42.644;23.366;2023-07-31T01:57:34;24.07;;;22.07;;
9720;SDS011;4899;42.644;23.366;2023-07-31T01:59:59;25.23;;;23.03;;
9720;SDS011;4899;42.644;23.366;2023-07-31T02:02:24;25.67;;;23.63;;
9720;SDS011;4899;42.644;23.366;2023-07-31T02:04:49;23.53;;;21.63;;
9720;SDS011;4899;42.644;23.366;2023-07-31T02:07:15;26.00;;;23.83;;
9720;SDS011;4899;42.644;23.366;2023-07-31T02:09:40;25.43;;;23.33;;
9720;SDS011;4899;42.644;23.366;2023-07-31T02:12:05;26.17;;;23.87;;
9720;SDS011;4899;42.644;23.366;2023-07-31T02:14:33;25.17;;;23.13;;
9720;SDS011;4899;42.644;23.366;2023-07-31T02:16:58;24.77;;;22.77;;
9720;SDS011;4899;42.644;23.366;2023-07-31T02:19:24;26.83;;;24.63;;
9720;SDS011;4899;42.644;23.366;2023-07-31T02:21:49;26.30;;;24.10;;
9720;SDS011;4899;42.644;23.366;2023-07-31T02:24:14;25.43;;;23.13;;
9720;SDS011;4899;42.644;23.366;2023-07-31T02:26:39;26.93;;;24.67;;
9720;SDS011;4899;42.644;23.366;2023-07-31T02:29:05;26.87;;;24.60;;
9720;SDS011;4899;42.644;23.366;2023-07-31T02:31:30;25.67;;;23.47;;
9720;SDS011;4899;42.644;23.366;2023-07-31T02:33:55;25.93;;;23.83;;
9720;SDS011;4899;42.644;23.366;2023-07-31T02:36:21;26.23;;;24.03;;
9720;SDS011;4899;42.644;23.366;2023-07-31T02:38:46;25.33;;;23.23;;
9720;SDS011;4899;42.644;23.366;2023-07-31T02:41:11;26.57;;;24.47;;
9720;SDS011;4899;42.644;23.366;2023-07-31T02:43:36;26.63;;;24.27;;
9720;SDS011;4899;42.644;23.366;2023-07-31T02:46:02;26.53;;;24.30;;
9720;SDS011;4899;42.644;23.366;2023-07-31T02:48:27;26.57;;;24.17;;
9720;SDS011;4899;42.644;23.366;2023-07-31T02:50:53;26.40;;;24.10;;
9720;SDS011;4899;42.644;23.366;2023-07-31T02:53:18;24.90;;;22.80;;
9720;SDS011;4899;42.644;23.366;2023-07-31T02:55:43;29.03;;;26.67;;
9720;SDS011;4899;42.644;23.366;2023-07-31T02:58:09;25.97;;;23.70;;
9720;SDS011;4899;42.644;23.366;2023-07-31T03:00:34;25.20;;;22.97;;
9720;SDS011;4899;42.644;23.366;2023-07-31T03:03:00;25.20;;;23.20;;
9720;SDS011;4899;42.644;23.366;2023-07-31T03:05:25;26.67;;;24.47;;
9720;SDS011;4899;42.644;23.366;2023-07-31T03:07:50;26.60;;;24.30;;
9720;SDS011;4899;42.644;23.366;2023-07-31T03:10:15;26.40;;;24.30;;
9720;SDS011;4899;42.644;23.366;2023-07-31T03:12:41;23.70;;;21.57;;
9720;SDS011;4899;42.644;23.366;2023-07-31T03:15:06;26.50;;;24.20;;
9720;SDS011;4899;42.644;23.366;2023-07-31T03:17:32;25.37;;;23.30;;
9720;SDS011;4899;42.644;23.366;2023-07-31T03:19:57;24.80;;;22.70;;
9720;SDS011;4899;42.644;23.366;2023-07-31T03:22:22;26.00;;;23.93;;
9720;SDS011;4899;42.644;23.366;2023-07-31T03:24:48;25.90;;;23.80;;
9720;SDS011;4899;42.644;23.366;2023-07-31T03:27:13;25.43;;;23.43;;
9720;SDS011;4899;42.644;23.366;2023-07-31T03:29:38;25.47;;;23.40;;
9720;SDS011;4899;42.644;23.366;2023-07-31T03:32:04;25.93;;;23.53;;
9720;SDS011;4899;42.644;23.366;2023-07-31T03:34:29;25.63;;;23.43;;
9720;SDS011;4899;42.644;23.366;2023-07-31T03:36:56;25.57;;;23.37;;
9720;SDS011;4899;42.644;23.366;2023-07-31T03:39:22;25.63;;;23.30;;
9720;SDS011;4899;42.644;23.366;2023-07-31T03:41:47;26.30;;;23.93;;
9720;SDS011;4899;42.644;23.366;2023-07-31T03:44:12;25.27;;;23.10;;
9720;SDS011;4899;42.644;23.366;2023-07-31T03:46:37;27.23;;;24.73;;
9720;SDS011;4899;42.644;23.366;2023-07-31T03:49:03;25.97;;;23.87;;
9720;SDS011;4899;42.644;23.366;2023-07-31T03:51:28;25.43;;;23.33;;
9720;SDS011;4899;42.644;23.366;2023-07-31T03:53:53;25.07;;;23.00;;
9720;SDS011;4899;42.644;23.366;2023-07-31T03:56:19;26.33;;;24.03;;
9720;SDS011;4899;42.644;23.366;2023-07-31T03:58:44;24.30;;;22.20;;
9720;SDS011;4899;42.644;23.366;2023-07-31T04:01:09;25.33;;;23.23;;
9720;SDS011;4899;42.644;23.366;2023-07-31T04:03:34;24.83;;;22.83;;
9720;SDS011;4899;42.644;23.366;2023-07-31T04:06:00;26.67;;;24.37;;
9720;SDS011;4899;42.644;23.366;2023-07-31T04:08:25;24.90;;;22.80;;
9720;SDS011;4899;42.644;23.366;2023-07-31T04:10:50;24.97;;;22.90;;
9720;SDS011;4899;42.644;23.366;2023-07-31T04:13:16;25.43;;;23.23;;
9720;SDS011;4899;42.644;23.366;2023-07-31T04:15:41;26.67;;;24.43;;
9720;SDS011;4899;42.644;23.366;2023-07-31T04:18:06;25.57;;;23.37;;
9720;SDS011;4899;42.644;23.366;2023-07-31T04:20:32;27.10;;;24.80;;
9720;SDS011;4899;42.644;23.366;2023-07-31T04:22:57;27.30;;;24.90;;
9720;SDS011;4899;42.644;23.366;2023-07-31T04:25:22;25.07;;;22.93;;
9720;SDS011;4899;42.644;23.366;2023-07-31T04:27:48;25.57;;;23.40;;
9720;SDS011;4899;42.644;23.366;2023-07-31T04:30:13;26.77;;;24.43;;
9720;SDS011;4899;42.644;23.366;2023-07-31T04:32:38;25.10;;;22.87;;
9720;SDS011;4899;42.644;23.366;2023-07-31T04:35:03;26.60;;;24.37;;
9720;SDS011;4899;42.644;23.366;2023-07-31T04:37:29;25.60;;;23.30;;
9720;SDS011;4899;42.644;23.366;2023-07-31T04:39:54;25.23;;;23.13;;
9720;SDS011;4899;42.644;23.366;2023-07-31T04:42:19;25.43;;;23.23;;
9720;SDS011;4899;42.644;23.366;2023-07-31T04:44:45;24.43;;;22.23;;
9720;SDS011;4899;42.644;23.366;2023-07-31T04:47:10;22.83;;;20.77;;
9720;SDS011;4899;42.644;23.366;2023-07-31T04:49:35;22.30;;;20.43;;
9720;SDS011;4899;42.644;23.366;2023-07-31T04:52:00;24.60;;;22.33;;
9720;SDS011;4899;42.644;23.366;2023-07-31T04:54:26;22.07;;;20.17;;
9720;SDS011;4899;42.644;23.366;2023-07-31T04:56:51;21.93;;;20.13;;
9720;SDS011;4899;42.644;23.366;2023-07-31T04:59:17;21.13;;;19.23;;
9720;SDS011;4899;42.644;23.366;2023-07-31T05:01:43;20.80;;;19.00;;
9720;SDS011;4899;42.644;23.366;2023-07-31T05:04:10;23.00;;;20.93;;
9720;SDS011;4899;42.644;23.366;2023-07-31T05:06:35;22.73;;;20.90;;
9720;SDS011;4899;42.644;23.366;2023-07-31T05:09:00;21.87;;;20.27;;
9720;SDS011;4899;42.644;23.366;2023-07-31T05:11:25;22.27;;;20.13;;
9720;SDS011;4899;42.644;23.366;2023-07-31T05:13:51;23.30;;;21.30;;
9720;SDS011;4899;42.644;23.366;2023-07-31T05:16:16;21.67;;;19.87;;
9720;SDS011;4899;42.644;23.366;2023-07-31T05:18:41;21.93;;;20.13;;
9720;SDS011;4899;42.644;23.366;2023-07-31T05:21:06;23.57;;;21.53;;
9720;SDS011;4899;42.644;23.366;2023-07-31T05:23:32;21.63;;;19.83;;
9720;SDS011;4899;42.644;23.366;2023-07-31T05:26:07;22.90;;;21.00;;
9720;SDS011;4899;42.644;23.366;2023-07-31T05:28:34;21.07;;;19.37;;
9720;SDS011;4899;42.644;23.366;2023-07-31T05:31:00;20.13;;;18.53;;
9720;SDS011;4899;42.644;23.366;2023-07-31T05:33:26;20.47;;;18.77;;
9720;SDS011;4899;42.644;23.366;2023-07-31T05:35:51;19.17;;;17.40;;
9720;SDS011;4899;42.644;23.366;2023-07-31T05:38:16;18.97;;;17.23;;
9720;SDS011;4899;42.644;23.366;2023-07-31T05:40:42;18.03;;;16.50;;
9720;SDS011;4899;42.644;23.366;2023-07-31T05:43:07;17.00;;;15.50;;
9720;SDS011;4899;42.644;23.366;2023-07-31T05:45:33;17.17;;;15.70;;
9720;SDS011;4899;42.644;23.366;2023-07-31T05:47:58;15.67;;;13.93;;
9720;SDS011;4899;42.644;23.366;2023-07-31T05:50:23;14.70;;;13.33;;
9720;SDS011;4899;42.644;23.366;2023-07-31T05:52:49;13.60;;;12.47;;
9720;SDS011;4899;42.644;23.366;2023-07-31T05:55:14;12.47;;;11.57;;
9720;SDS011;4899;42.644;23.366;2023-07-31T05:57:39;11.40;;;10.50;;
9720;SDS011;4899;42.644;23.366;2023-07-31T06:00:05;10.90;;;10.10;;
9720;SDS011;4899;42.644;23.366;2023-07-31T06:02:30;10.10;;;9.20;;
9720;SDS011;4899;42.644;23.366;2023-07-31T06:04:58;9.87;;;9.17;;
9720;SDS011;4899;42.644;23.366;2023-07-31T06:07:23;9.60;;;8.80;;
9720;SDS011;4899;42.644;23.366;2023-07-31T06:09:49;9.53;;;8.73;;
9720;SDS011;4899;42.644;23.366;2023-07-31T06:12:14;8.33;;;7.70;;
9720;SDS011;4899;42.644;23.366;2023-07-31T06:14:42;7.77;;;7.20;;
9720;SDS011;4899;42.644;23.366;2023-07-31T06:17:08;7.50;;;7.00;;
9720;SDS011;4899;42.644;23.366;2023-07-31T06:19:33;8.33;;;7.63;;
9720;SDS011;4899;42.644;23.366;2023-07-31T06:21:58;7.90;;;7.10;;
9720;SDS011;4899;42.644;23.366;2023-07-31T06:24:23;6.60;;;6.20;;
9720;SDS011;4899;42.644;23.366;2023-07-31T06:26:49;5.67;;;5.37;;
9720;SDS011;4899;42.644;23.366;2023-07-31T06:29:15;5.60;;;5.20;;
9720;SDS011;4899;42.644;23.366;2023-07-31T06:31:41;6.00;;;5.50;;
9720;SDS011;4899;42.644;23.366;2023-07-31T06:34:06;5.50;;;5.00;;
9720;SDS011;4899;42.644;23.366;2023-07-31T06:36:31;5.67;;;5.17;;
9720;SDS011;4899;42.644;23.366;2023-07-31T06:38:56;5.63;;;4.67;;
9720;SDS011;4899;42.644;23.366;2023-07-31T06:41:22;5.00;;;4.60;;
9720;SDS011;4899;42.644;23.366;2023-07-31T06:43:47;4.83;;;4.50;;
9720;SDS011;4899;42.644;23.366;2023-07-31T06:46:12;5.33;;;4.83;;
9720;SDS011;4899;42.644;23.366;2023-07-31T06:48:38;6.43;;;4.87;;
9720;SDS011;4899;42.644;23.366;2023-07-31T06:51:05;5.90;;;5.03;;
9720;SDS011;4899;42.644;23.366;2023-07-31T06:53:30;5.17;;;4.77;;
9720;SDS011;4899;42.644;23.366;2023-07-31T06:55:56;4.97;;;4.67;;
9720;SDS011;4899;42.644;23.366;2023-07-31T06:58:21;4.50;;;4.20;;
9720;SDS011;4899;42.644;23.366;2023-07-31T07:00:46;4.33;;;4.10;;
9720;SDS011;4899;42.644;23.366;2023-07-31T07:03:14;5.60;;;4.70;;
9720;SDS011;4899;42.644;23.366;2023-07-31T07:05:40;4.57;;;4.23;;
9720;SDS011;4899;42.644;23.366;2023-07-31T07:08:05;5.00;;;4.30;;
9720;SDS011;4899;42.644;23.366;2023-07-31T07:10:30;4.73;;;4.33;;
9720;SDS011;4899;42.644;23.366;2023-07-31T07:12:55;4.23;;;3.93;;
9720;SDS011;4899;42.644;23.366;2023-07-31T07:15:21;4.50;;;4.10;;
9720;SDS011;4899;42.644;23.366;2023-07-31T07:17:46;4.93;;;3.97;;
9720;SDS011;4899;42.644;23.366;2023-07-31T07:20:12;3.67;;;3.47;;
9720;SDS011;4899;42.644;23.366;2023-07-31T07:22:37;4.30;;;4.00;;
9720;SDS011;4899;42.644;23.366;2023-07-31T07:25:03;4.73;;;4.27;;
9720;SDS011;4899;42.644;23.366;2023-07-31T07:27:28;4.37;;;4.07;;
9720;SDS011;4899;42.644;23.366;2023-07-31T07:29:54;3.50;;;3.30;;
9720;SDS011;4899;42.644;23.366;2023-07-31T07:32:19;3.27;;;3.07;;
9720;SDS011;4899;42.644;23.366;2023-07-31T07:34:45;3.00;;;2.80;;
9720;SDS011;4899;42.644;23.366;2023-07-31T07:37:11;3.60;;;3.30;;
9720;SDS011;4899;42.644;23.366;2023-07-31T07:39:36;3.20;;;2.87;;
9720;SDS011;4899;42.644;23.366;2023-07-31T07:42:01;3.87;;;3.17;;
9720;SDS011;4899;42.644;23.366;2023-07-31T07:44:27;3.30;;;3.10;;
9720;SDS011;4899;42.644;23.366;2023-07-31T07:46:52;3.70;;;3.40;;
9720;SDS011;4899;42.644;23.366;2023-07-31T07:49:17;3.70;;;3.40;;
9720;SDS011;4899;42.644;23.366;2023-07-31T07:51:43;3.37;;;3.17;;
9720;SDS011;4899;42.644;23.366;2023-07-31T07:54:08;3.43;;;3.13;;
9720;SDS011;4899;42.644;23.366;2023-07-31T07:56:33;4.17;;;3.87;;
9720;SDS011;4899;42.644;23.366;2023-07-31T07:58:58;3.73;;;3.43;;
9720;SDS011;4899;42.644;23.366;2023-07-31T08:01:24;3.17;;;2.97;;
9720;SDS011;4899;42.644;23.366;2023-07-31T08:03:49;3.23;;;2.93;;
9720;SDS011;4899;42.644;23.366;2023-07-31T08:06:14;3.57;;;3.30;;
9720;SDS011;4899;42.644;23.366;2023-07-31T08:08:40;3.07;;;2.87;;
9720;SDS011;4899;42.644;23.366;2023-07-31T08:11:05;3.00;;;2.80;;
9720;SDS011;4899;42.644;23.366;2023-07-31T08:13:30;3.00;;;2.80;;
9720;SDS011;4899;42.644;23.366;2023-07-31T08:15:56;2.77;;;2.57;;
9720;SDS011;4899;42.644;23.366;2023-07-31T08:18:21;3.13;;;2.93;;
9720;SDS011;4899;42.644;23.366;2023-07-31T08:20:46;3.20;;;3.00;;
9720;SDS011;4899;42.644;23.366;2023-07-31T08:23:12;3.60;;;3.30;;
9720;SDS011;4899;42.644;23.366;2023-07-31T08:25:37;3.23;;;2.80;;
9720;SDS011;4899;42.644;23.366;2023-07-31T08:28:03;3.30;;;3.10;;
9720;SDS011;4899;42.644;23.366;2023-07-31T08:30:29;3.30;;;3.00;;
9720;SDS011;4899;42.644;23.366;2023-07-31T08:32:54;3.43;;;3.07;;
9720;SDS011;4899;42.644;23.366;2023-07-31T08:35:19;3.20;;;3.00;;
9720;SDS011;4899;42.644;23.366;2023-07-31T08:37:44;3.57;;;2.93;;
9720;SDS011;4899;42.644;23.366;2023-07-31T08:40:10;3.43;;;2.77;;
9720;SDS011;4899;42.644;23.366;2023-07-31T08:42:45;3.77;;;3.23;;
9720;SDS011;4899;42.644;23.366;2023-07-31T08:45:14;3.30;;;2.93;;
9720;SDS011;4899;42.644;23.366;2023-07-31T08:47:41;3.33;;;3.13;;
9720;SDS011;4899;42.644;23.366;2023-07-31T08:50:07;3.60;;;3.30;;
9720;SDS011;4899;42.644;23.366;2023-07-31T08:52:32;3.07;;;2.87;;
9720;SDS011;4899;42.644;23.366;2023-07-31T08:54:58;3.13;;;2.80;;
9720;SDS011;4899;42.644;23.366;2023-07-31T08:57:24;3.57;;;3.27;;
9720;SDS011;4899;42.644;23.366;2023-07-31T08:59:49;3.43;;;3.13;;
9720;SDS011;4899;42.644;23.366;2023-07-31T09:02:15;2.83;;;2.63;;
9720;SDS011;4899;42.644;23.366;2023-07-31T09:04:41;3.47;;;2.90;;
9720;SDS011;4899;42.644;23.366;2023-07-31T09:07:06;3.00;;;2.80;;
9720;SDS011;4899;42.644;23.366;2023-07-31T09:09:34;3.20;;;3.00;;
9720;SDS011;4899;42.644;23.366;2023-07-31T09:11:59;5.40;;;2.97;;
9720;SDS011;4899;42.644;23.366;2023-07-31T09:14:25;4.93;;;3.00;;
9720;SDS011;4899;42.644;23.366;2023-07-31T09:16:56;2.60;;;2.40;;
9720;SDS011;4899;42.644;23.366;2023-07-31T09:19:26;3.47;;;2.63;;
9720;SDS011;4899;42.644;23.366;2023-07-31T09:21:52;2.87;;;2.67;;
9720;SDS011;4899;42.644;23.366;2023-07-31T09:24:27;2.97;;;2.70;;
9720;SDS011;4899;42.644;23.366;2023-07-31T09:26:53;2.83;;;2.63;;
9720;SDS011;4899;42.644;23.366;2023-07-31T09:29:19;4.03;;;2.53;;
9720;SDS011;4899;42.644;23.366;2023-07-31T09:31:44;2.57;;;2.43;;
9720;SDS011;4899;42.644;23.366;2023-07-31T09:34:10;2.53;;;2.43;;
9720;SDS011;4899;42.644;23.366;2023-07-31T09:39:08;4.30;;;3.90;;
9720;SDS011;4899;42.644;23.366;2023-07-31T09:41:36;3.70;;;3.40;;
9720;SDS011;4899;42.644;23.366;2023-07-31T09:44:01;3.67;;;3.37;;
9720;SDS011;4899;42.644;23.366;2023-07-31T09:46:27;3.20;;;3.00;;
9720;SDS011;4899;42.644;23.366;2023-07-31T09:48:52;4.10;;;3.80;;
9720;SDS011;4899;42.644;23.366;2023-07-31T09:51:17;3.13;;;2.93;;
9720;SDS011;4899;42.644;23.366;2023-07-31T09:53:50;3.70;;;3.40;;
9720;SDS011;4899;42.644;23.366;2023-07-31T09:56:16;4.80;;;3.50;;
9720;SDS011;4899;42.644;23.366;2023-07-31T09:58:42;3.03;;;2.83;;
9720;SDS011;4899;42.644;23.366;2023-07-31T10:01:08;3.20;;;2.90;;
9720;SDS011;4899;42.644;23.366;2023-07-31T10:03:33;3.40;;;3.10;;
9720;SDS011;4899;42.644;23.366;2023-07-31T10:05:58;2.97;;;2.73;;
9720;SDS011;4899;42.644;23.366;2023-07-31T10:08:29;2.57;;;2.37;;
9720;SDS011;4899;42.644;23.366;2023-07-31T10:10:55;3.83;;;2.63;;
9720;SDS011;4899;42.644;23.366;2023-07-31T10:13:23;4.47;;;3.30;;
9720;SDS011;4899;42.644;23.366;2023-07-31T10:15:49;2.63;;;2.45;;
9720;SDS011;4899;42.644;23.366;2023-07-31T10:18:15;2.75;;;2.55;;
9720;SDS011;4899;42.644;23.366;2023-07-31T10:20:40;2.80;;;2.60;;
9720;SDS011;4899;42.644;23.366;2023-07-31T10:23:06;2.42;;;2.22;;
9720;SDS011;4899;42.644;23.366;2023-07-31T10:25:32;2.72;;;2.53;;
9720;SDS011;4899;42.644;23.366;2023-07-31T10:27:57;2.67;;;2.22;;
9720;SDS011;4899;42.644;23.366;2023-07-31T10:30:27;2.33;;;2.13;;
9720;SDS011;4899;42.644;23.366;2023-07-31T10:32:54;2.20;;;2.10;;
9720;SDS011;4899;42.644;23.366;2023-07-31T10:35:20;2.35;;;2.10;;
9720;SDS011;4899;42.644;23.366;2023-07-31T10:37:47;2.50;;;2.28;;
9720;SDS011;4899;42.644;23.366;2023-07-31T10:40:15;2.43;;;2.33;;
9720;SDS011;4899;42.644;23.366;2023-07-31T10:45:07;2.55;;;1.90;;
9720;SDS011;4899;42.644;23.366;2023-07-31T10:47:38;2.30;;;2.10;;
9720;SDS011;4899;42.644;23.366;2023-07-31T10:50:13;2.50;;;2.30;;
9720;SDS011;4899;42.644;23.366;2023-07-31T10:52:42;2.20;;;2.05;;
9720;SDS011;4899;42.644;23.366;2023-07-31T10:57:40;2.58;;;2.10;;
9720;SDS011;4899;42.644;23.366;2023-07-31T11:00:18;2.22;;;2.10;;
9720;SDS011;4899;42.644;23.366;2023-07-31T11:02:55;2.00;;;1.90;;
9720;SDS011;4899;42.644;23.366;2023-07-31T11:05:21;2.13;;;1.75;;
9720;SDS011;4899;42.644;23.366;2023-07-31T11:08:10;1.88;;;1.77;;
9720;SDS011;4899;42.644;23.366;2023-07-31T11:10:35;2.53;;;1.90;;
9720;SDS011;4899;42.644;23.366;2023-07-31T11:13:00;2.08;;;1.98;;
9720;SDS011;4899;42.644;23.366;2023-07-31T11:15:28;2.20;;;2.00;;
9720;SDS011;4899;42.644;23.366;2023-07-31T11:17:54;2.20;;;1.90;;
9720;SDS011;4899;42.644;23.366;2023-07-31T11:20:20;1.80;;;1.67;;
9720;SDS011;4899;42.644;23.366;2023-07-31T11:22:46;2.70;;;2.08;;
9720;SDS011;4899;42.644;23.366;2023-07-31T11:25:12;1.90;;;1.80;;
9720;SDS011;4899;42.644;23.366;2023-07-31T11:27:39;2.95;;;1.73;;
9720;SDS011;4899;42.644;23.366;2023-07-31T11:30:06;2.00;;;1.85;;
9720;SDS011;4899;42.644;23.366;2023-07-31T11:32:32;1.90;;;1.80;;
9720;SDS011;4899;42.644;23.366;2023-07-31T11:34:57;3.17;;;1.42;;
9720;SDS011;4899;42.644;23.366;2023-07-31T11:37:23;1.83;;;1.73;;
9720;SDS011;4899;42.644;23.366;2023-07-31T11:40:00;2.00;;;1.90;;
9720;SDS011;4899;42.644;23.366;2023-07-31T11:42:25;3.05;;;1.55;;
9720;SDS011;4899;42.644;23.366;2023-07-31T11:44:51;2.05;;;1.95;;
9720;SDS011;4899;42.644;23.366;2023-07-31T11:47:16;3.28;;;2.20;;
9720;SDS011;4899;42.644;23.366;2023-07-31T11:49:42;1.75;;;1.65;;
9720;SDS011;4899;42.644;23.366;2023-07-31T11:52:08;3.05;;;2.00;;
9720;SDS011;4899;42.644;23.366;2023-07-31T11:54:33;2.17;;;2.08;;
9720;SDS011;4899;42.644;23.366;2023-07-31T11:56:59;2.25;;;2.15;;
9720;SDS011;4899;42.644;23.366;2023-07-31T11:59:26;2.60;;;2.40;;
9720;SDS011;4899;42.644;23.366;2023-07-31T12:01:51;3.05;;;2.42;;
9720;SDS011;4899;42.644;23.366;2023-07-31T12:04:18;2.70;;;2.50;;
9720;SDS011;4899;42.644;23.366;2023-07-31T12:06:44;2.17;;;2.08;;
9720;SDS011;4899;42.644;23.366;2023-07-31T12:09:10;2.17;;;2.08;;
9720;SDS011;4899;42.644;23.366;2023-07-31T12:11:44;2.20;;;2.10;;
9720;SDS011;4899;42.644;23.366;2023-07-31T12:14:26;2.45;;;1.90;;
9720;SDS011;4899;42.644;23.366;2023-07-31T12:16:58;2.72;;;2.53;;
9720;SDS011;4899;42.644;23.366;2023-07-31T12:19:27;2.85;;;2.38;;
9720;SDS011;4899;42.644;23.366;2023-07-31T12:21:59;2.55;;;2.35;;
9720;SDS011;4899;42.644;23.366;2023-07-31T12:24:26;2.80;;;2.53;;
9720;SDS011;4899;42.644;23.366;2023-07-31T12:26:51;3.05;;;2.40;;
9720;SDS011;4899;42.644;23.366;2023-07-31T12:29:17;2.92;;;2.67;;
9720;SDS011;4899;42.644;23.366;2023-07-31T12:31:43;3.60;;;3.40;;
9720;SDS011;4899;42.644;23.366;2023-07-31T12:34:17;4.65;;;4.35;;
9720;SDS011;4899;42.644;23.366;2023-07-31T12:36:44;4.78;;;4.47;;
9720;SDS011;4899;42.644;23.366;2023-07-31T12:39:09;5.65;;;5.15;;
9720;SDS011;4899;42.644;23.366;2023-07-31T12:41:35;4.78;;;4.47;;
9720;SDS011;4899;42.644;23.366;2023-07-31T12:44:00;4.93;;;4.47;;
9720;SDS011;4899;42.644;23.366;2023-07-31T12:46:25;4.40;;;4.10;;
9720;SDS011;4899;42.644;23.366;2023-07-31T12:48:51;4.25;;;3.95;;
9720;SDS011;4899;42.644;23.366;2023-07-31T12:51:16;4.07;;;3.88;;
9720;SDS011;4899;42.644;23.366;2023-07-31T12:53:41;4.13;;;3.83;;
9720;SDS011;4899;42.644;23.366;2023-07-31T12:56:07;4.32;;;4.03;;
9720;SDS011;4899;42.644;23.366;2023-07-31T12:58:32;4.43;;;4.13;;
9720;SDS011;4899;42.644;23.366;2023-07-31T13:00:57;3.80;;;3.60;;
9720;SDS011;4899;42.644;23.366;2023-07-31T13:03:23;5.10;;;4.70;;
9720;SDS011;4899;42.644;23.366;2023-07-31T13:05:48;4.78;;;4.15;;
9720;SDS011;4899;42.644;23.366;2023-07-31T13:08:13;4.95;;;4.65;;
9720;SDS011;4899;42.644;23.366;2023-07-31T13:10:40;5.10;;;4.68;;
9720;SDS011;4899;42.644;23.366;2023-07-31T13:13:06;5.07;;;4.68;;
9720;SDS011;4899;42.644;23.366;2023-07-31T13:15:31;4.93;;;4.60;;
9720;SDS011;4899;42.644;23.366;2023-07-31T13:17:56;5.32;;;4.90;;
9720;SDS011;4899;42.644;23.366;2023-07-31T13:20:22;6.45;;;5.10;;
9720;SDS011;4899;42.644;23.366;2023-07-31T13:22:47;5.45;;;4.97;;
9720;SDS011;4899;42.644;23.366;2023-07-31T13:25:12;5.70;;;5.30;;
9720;SDS011;4899;42.644;23.366;2023-07-31T13:27:37;5.68;;;5.18;;
9720;SDS011;4899;42.644;23.366;2023-07-31T13:30:03;9.38;;;5.38;;
9720;SDS011;4899;42.644;23.366;2023-07-31T13:32:28;4.82;;;4.53;;
9720;SDS011;4899;42.644;23.366;2023-07-31T13:34:54;5.55;;;4.85;;
9720;SDS011;4899;42.644;23.366;2023-07-31T13:37:19;5.15;;;4.43;;
9720;SDS011;4899;42.644;23.366;2023-07-31T13:39:44;3.88;;;3.60;;
9720;SDS011;4899;42.644;23.366;2023-07-31T13:42:10;4.10;;;3.80;;
9720;SDS011;4899;42.644;23.366;2023-07-31T13:44:40;3.65;;;3.45;;
9720;SDS011;4899;42.644;23.366;2023-07-31T13:47:05;3.78;;;3.58;;
9720;SDS011;4899;42.644;23.366;2023-07-31T13:49:32;5.15;;;4.00;;
9720;SDS011;4899;42.644;23.366;2023-07-31T13:51:58;4.13;;;3.90;;
9720;SDS011;4899;42.644;23.366;2023-07-31T13:54:24;4.03;;;3.70;;
9720;SDS011;4899;42.644;23.366;2023-07-31T13:56:50;5.22;;;3.85;;
9720;SDS011;4899;42.644;23.366;2023-07-31T13:59:16;4.13;;;3.92;;
9720;SDS011;4899;42.644;23.366;2023-07-31T14:01:43;4.20;;;3.90;;
9720;SDS011;4899;42.644;23.366;2023-07-31T14:04:08;4.22;;;3.83;;
9720;SDS011;4899;42.644;23.366;2023-07-31T14:06:33;4.60;;;4.20;;
9720;SDS011;4899;42.644;23.366;2023-07-31T14:08:59;3.90;;;3.70;;
9720;SDS011;4899;42.644;23.366;2023-07-31T14:11:24;3.75;;;3.50;;
9720;SDS011;4899;42.644;23.366;2023-07-31T14:13:52;3.80;;;3.58;;
9720;SDS011;4899;42.644;23.366;2023-07-31T14:16:17;3.53;;;3.20;;
9720;SDS011;4899;42.644;23.366;2023-07-31T14:18:43;3.95;;;3.60;;
9720;SDS011;4899;42.644;23.366;2023-07-31T14:21:10;3.60;;;3.40;;
9720;SDS011;4899;42.644;23.366;2023-07-31T14:23:35;3.60;;;3.30;;
9720;SDS011;4899;42.644;23.366;2023-07-31T14:26:00;3.65;;;3.45;;
9720;SDS011;4899;42.644;23.366;2023-07-31T14:28:26;3.78;;;3.58;;
9720;SDS011;4899;42.644;23.366;2023-07-31T14:30:51;4.40;;;4.00;;
9720;SDS011;4899;42.644;23.366;2023-07-31T14:33:16;3.88;;;3.58;;
9720;SDS011;4899;42.644;23.366;2023-07-31T14:35:41;5.55;;;3.35;;
9720;SDS011;4899;42.644;23.366;2023-07-31T14:38:09;3.50;;;3.30;;
9720;SDS011;4899;42.644;23.366;2023-07-31T14:40:34;4.05;;;3.60;;
9720;SDS011;4899;42.644;23.366;2023-07-31T14:42:59;3.88;;;3.53;;
9720;SDS011;4899;42.644;23.366;2023-07-31T14:45:25;3.97;;;3.67;;
9720;SDS011;4899;42.644;23.366;2023-07-31T14:47:50;3.50;;;3.30;;
9720;SDS011;4899;42.644;23.366;2023-07-31T14:50:15;3.60;;;3.40;;
9720;SDS011;4899;42.644;23.366;2023-07-31T14:52:41;3.40;;;3.20;;
9720;SDS011;4899;42.644;23.366;2023-07-31T14:55:06;4.32;;;3.75;;